sensor_id;sensor_type;location;lat;lon;timestamp;temperature;humidity
40816;DHT22;26535;48.788;9.214;2024-03-29T00:01:16;8.80;76.40
40816;DHT22;26535;48.788;9.214;2024-03-29T00:03:42;8.90;76.20
40816;DHT22;26535;48.788;9.214;2024-03-29T00:06:08;9.00;76.20
40816;DHT22;26535;48.788;9.214;2024-03-29T00:08:34;9.00;76.00
40816;DHT22;26535;48.788;9.214;2024-03-29T00:11:00;9.20;75.90
40816;DHT22;26535;48.788;9.214;2024-03-29T00:13:25;9.20;75.70
40816;DHT22;26535;48.788;9.214;2024-03-29T06:01:57;9.70;80.70
40816;DHT22;26535;48.788;9.214;2024-03-29T06:04:23;9.70;80.70
40816;DHT22;26535;48.788;9.214;2024-03-29T06:06:56;9.70;79.70
40816;DHT22;26535;48.788;9.214;2024-03-29T06:09:23;9.80;80.30
40816;DHT22;26535;48.788;9.214;2024-03-29T06:11:49;9.90;79.20
40816;DHT22;26535;48.788;9.214;2024-03-29T06:14:14;10.00;78.00
40816;DHT22;26535;48.788;9.214;2024-03-29T06:16:59;10.10;77.70
40816;DHT22;26535;48.788;9.214;2024-03-29T06:19:43;10.20;79.60
40816;DHT22;26535;48.788;9.214;2024-03-29T06:22:09;10.30;80.80
40816;DHT22;26535;48.788;9.214;2024-03-29T06:24:35;10.40;80.70
40816;DHT22;26535;48.788;9.214;2024-03-29T06:27:01;10.40;81.00
40816;DHT22;26535;48.788;9.214;2024-03-29T06:29:26;10.50;81.00
40816;DHT22;26535;48.788;9.214;2024-03-29T06:31:52;10.60;80.40
40816;DHT22;26535;48.788;9.214;2024-03-29T06:34:18;10.70;79.60
40816;DHT22;26535;48.788;9.214;2024-03-29T06:36:43;10.70;79.80
40816;DHT22;26535;48.788;9.214;2024-03-29T06:39:09;10.70;78.80
40816;DHT22;26535;48.788;9.214;2024-03-29T06:41:35;10.80;77.40
40816;DHT22;26535;48.788;9.214;2024-03-29T06:44:01;10.90;77.00
40816;DHT22;26535;48.788;9.214;2024-03-29T06:46:27;11.00;77.50
40816;DHT22;26535;48.788;9.214;2024-03-29T06:48:53;11.10;76.80
40816;DHT22;26535;48.788;9.214;2024-03-29T06:51:18;11.20;76.10
40816;DHT22;26535;48.788;9.214;2024-03-29T06:53:44;11.30;75.60
40816;DHT22;26535;48.788;9.214;2024-03-29T06:56:09;11.40;75.60
40816;DHT22;26535;48.788;9.214;2024-03-29T06:58:35;11.50;75.60
40816;DHT22;26535;48.788;9.214;2024-03-29T07:01:01;11.60;75.40
40816;DHT22;26535;48.788;9.214;2024-03-29T07:03:26;11.70;75.10
40816;DHT22;26535;48.788;9.214;2024-03-29T07:05:52;11.70;74.60
40816;DHT22;26535;48.788;9.214;2024-03-29T07:08:18;11.90;74.30
40816;DHT22;26535;48.788;9.214;2024-03-29T07:10:43;12.00;74.10
40816;DHT22;26535;48.788;9.214;2024-03-29T07:13:09;12.20;73.40
40816;DHT22;26535;48.788;9.214;2024-03-29T07:15:35;12.30;73.00
40816;DHT22;26535;48.788;9.214;2024-03-29T07:18:01;12.30;72.80
40816;DHT22;26535;48.788;9.214;2024-03-29T07:20:28;12.20;72.30
40816;DHT22;26535;48.788;9.214;2024-03-29T07:22:54;12.10;72.20
40816;DHT22;26535;48.788;9.214;2024-03-29T07:25:20;12.00;72.40
40816;DHT22;26535;48.788;9.214;2024-03-29T07:27:46;11.90;73.00
40816;DHT22;26535;48.788;9.214;2024-03-29T07:30:12;11.80;74.30
40816;DHT22;26535;48.788;9.214;2024-03-29T07:32:39;11.60;74.80
40816;DHT22;26535;48.788;9.214;2024-03-29T07:35:05;11.60;75.40
40816;DHT22;26535;48.788;9.214;2024-03-29T07:37:31;11.50;76.50
40816;DHT22;26535;48.788;9.214;2024-03-29T07:39:56;11.40;79.80
40816;DHT22;26535;48.788;9.214;2024-03-29T07:42:22;11.30;83.30
40816;DHT22;26535;48.788;9.214;2024-03-29T07:44:48;11.10;86.50
40816;DHT22;26535;48.788;9.214;2024-03-29T07:47:14;10.90;86.10
40816;DHT22;26535;48.788;9.214;2024-03-29T07:49:40;10.80;88.80
40816;DHT22;26535;48.788;9.214;2024-03-29T07:52:06;10.60;90.30
40816;DHT22;26535;48.788;9.214;2024-03-29T07:54:32;10.40;92.10
40816;DHT22;26535;48.788;9.214;2024-03-29T07:56:58;10.20;92.70
40816;DHT22;26535;48.788;9.214;2024-03-29T07:59:24;10.00;93.00
40816;DHT22;26535;48.788;9.214;2024-03-29T08:01:49;9.90;92.40
40816;DHT22;26535;48.788;9.214;2024-03-29T08:04:18;9.90;92.80
40816;DHT22;26535;48.788;9.214;2024-03-29T08:06:43;10.00;93.20
40816;DHT22;26535;48.788;9.214;2024-03-29T08:09:09;10.10;92.70
40816;DHT22;26535;48.788;9.214;2024-03-29T08:11:40;10.20;92.90
40816;DHT22;26535;48.788;9.214;2024-03-29T08:14:05;10.30;93.40
40816;DHT22;26535;48.788;9.214;2024-03-29T08:16:32;10.30;93.90
40816;DHT22;26535;48.788;9.214;2024-03-29T08:18:57;10.40;93.90
40816;DHT22;26535;48.788;9.214;2024-03-29T08:21:24;10.40;94.30
40816;DHT22;26535;48.788;9.214;2024-03-29T08:23:52;10.40;94.50
40816;DHT22;26535;48.788;9.214;2024-03-29T08:26:21;10.40;94.30
40816;DHT22;26535;48.788;9.214;2024-03-29T08:28:46;10.50;94.20
40816;DHT22;26535;48.788;9.214;2024-03-29T08:31:12;10.50;94.70
40816;DHT22;26535;48.788;9.214;2024-03-29T08:33:38;10.60;94.00
40816;DHT22;26535;48.788;9.214;2024-03-29T08:36:06;10.60;93.20
40816;DHT22;26535;48.788;9.214;2024-03-29T08:38:34;10.60;94.00
40816;DHT22;26535;48.788;9.214;2024-03-29T08:41:00;10.70;94.50
40816;DHT22;26535;48.788;9.214;2024-03-29T08:43:25;10.70;94.00
40816;DHT22;26535;48.788;9.214;2024-03-29T08:45:52;10.60;95.00
40816;DHT22;26535;48.788;9.214;2024-03-29T08:48:18;10.80;94.60
40816;DHT22;26535;48.788;9.214;2024-03-29T08:50:44;10.80;95.20
40816;DHT22;26535;48.788;9.214;2024-03-29T08:53:09;10.80;95.60
40816;DHT22;26535;48.788;9.214;2024-03-29T08:55:35;10.80;95.50
40816;DHT22;26535;48.788;9.214;2024-03-29T08:58:06;10.80;95.50
40816;DHT22;26535;48.788;9.214;2024-03-29T09:00:31;10.70;95.30
40816;DHT22;26535;48.788;9.214;2024-03-29T09:02:57;10.70;95.80
40816;DHT22;26535;48.788;9.214;2024-03-29T09:05:23;10.80;96.40
40816;DHT22;26535;48.788;9.214;2024-03-29T09:07:49;11.00;96.80
40816;DHT22;26535;48.788;9.214;2024-03-29T09:10:16;11.00;97.60
40816;DHT22;26535;48.788;9.214;2024-03-29T09:12:41;11.10;97.70
40816;DHT22;26535;48.788;9.214;2024-03-29T09:15:07;11.10;98.20
40816;DHT22;26535;48.788;9.214;2024-03-29T09:17:42;11.20;98.30
40816;DHT22;26535;48.788;9.214;2024-03-29T09:20:08;11.20;97.50
40816;DHT22;26535;48.788;9.214;2024-03-29T09:22:34;11.30;98.00
40816;DHT22;26535;48.788;9.214;2024-03-29T09:25:00;11.30;98.50
40816;DHT22;26535;48.788;9.214;2024-03-29T09:27:27;11.30;98.00
40816;DHT22;26535;48.788;9.214;2024-03-29T09:29:54;11.40;98.30
40816;DHT22;26535;48.788;9.214;2024-03-29T09:32:19;11.40;97.80
40816;DHT22;26535;48.788;9.214;2024-03-29T09:34:46;11.30;98.00
40816;DHT22;26535;48.788;9.214;2024-03-29T09:37:12;11.10;98.30
40816;DHT22;26535;48.788;9.214;2024-03-29T09:39:38;11.10;98.70
40816;DHT22;26535;48.788;9.214;2024-03-29T09:42:06;11.00;98.60
40816;DHT22;26535;48.788;9.214;2024-03-29T09:44:33;11.00;98.80
40816;DHT22;26535;48.788;9.214;2024-03-29T09:47:03;11.00;98.70
40816;DHT22;26535;48.788;9.214;2024-03-29T09:49:31;11.10;98.70
40816;DHT22;26535;48.788;9.214;2024-03-29T09:51:59;11.30;99.00
40816;DHT22;26535;48.788;9.214;2024-03-29T09:54:27;11.60;99.20
40816;DHT22;26535;48.788;9.214;2024-03-29T09:56:57;11.70;98.70
40816;DHT22;26535;48.788;9.214;2024-03-29T09:59:23;11.90;97.90
40816;DHT22;26535;48.788;9.214;2024-03-29T10:01:50;11.80;97.10
40816;DHT22;26535;48.788;9.214;2024-03-29T10:04:18;11.60;97.00
40816;DHT22;26535;48.788;9.214;2024-03-29T10:06:49;11.60;97.50
40816;DHT22;26535;48.788;9.214;2024-03-29T10:09:19;11.70;98.00
40816;DHT22;26535;48.788;9.214;2024-03-29T10:11:46;11.80;97.70
40816;DHT22;26535;48.788;9.214;2024-03-29T10:14:12;12.00;97.60
40816;DHT22;26535;48.788;9.214;2024-03-29T10:16:39;12.20;97.60
40816;DHT22;26535;48.788;9.214;2024-03-29T10:19:05;12.40;97.40
40816;DHT22;26535;48.788;9.214;2024-03-29T10:21:34;12.70;97.10
40816;DHT22;26535;48.788;9.214;2024-03-29T10:24:22;13.20;95.90
40816;DHT22;26535;48.788;9.214;2024-03-29T10:26:47;13.60;95.80
40816;DHT22;26535;48.788;9.214;2024-03-29T10:29:13;14.00;94.90
40816;DHT22;26535;48.788;9.214;2024-03-29T10:31:39;14.20;94.60
40816;DHT22;26535;48.788;9.214;2024-03-29T10:34:05;14.30;94.00
40816;DHT22;26535;48.788;9.214;2024-03-29T10:36:32;14.20;93.10
40816;DHT22;26535;48.788;9.214;2024-03-29T10:39:10;14.10;93.30
40816;DHT22;26535;48.788;9.214;2024-03-29T10:41:43;14.00;93.00
40816;DHT22;26535;48.788;9.214;2024-03-29T10:44:10;14.10;93.30
40816;DHT22;26535;48.788;9.214;2024-03-29T10:46:43;14.30;92.70
40816;DHT22;26535;48.788;9.214;2024-03-29T10:49:10;14.50;92.00
40816;DHT22;26535;48.788;9.214;2024-03-29T10:51:41;14.70;92.10
40816;DHT22;26535;48.788;9.214;2024-03-29T10:54:11;14.80;91.90
40816;DHT22;26535;48.788;9.214;2024-03-29T10:56:38;14.90;91.80
40816;DHT22;26535;48.788;9.214;2024-03-29T10:59:12;15.10;91.50
40816;DHT22;26535;48.788;9.214;2024-03-29T11:01:44;15.40;91.40
40816;DHT22;26535;48.788;9.214;2024-03-29T11:08:08;15.90;90.30
40816;DHT22;26535;48.788;9.214;2024-03-29T11:10:45;16.30;89.00
40816;DHT22;26535;48.788;9.214;2024-03-29T11:20:57;16.50;88.40
40816;DHT22;26535;48.788;9.214;2024-03-29T11:23:36;16.60;87.50
40816;DHT22;26535;48.788;9.214;2024-03-29T11:26:11;16.70;87.40
40816;DHT22;26535;48.788;9.214;2024-03-29T11:53:43;16.70;90.20
40816;DHT22;26535;48.788;9.214;2024-03-29T12:23:52;17.00;90.00
40816;DHT22;26535;48.788;9.214;2024-03-29T12:26:18;17.60;88.10
40816;DHT22;26535;48.788;9.214;2024-03-29T12:28:48;17.90;86.30
40816;DHT22;26535;48.788;9.214;2024-03-29T12:31:14;18.30;84.70
40816;DHT22;26535;48.788;9.214;2024-03-29T12:33:40;18.60;82.60
40816;DHT22;26535;48.788;9.214;2024-03-29T12:36:15;18.80;82.10
40816;DHT22;26535;48.788;9.214;2024-03-29T12:38:42;18.90;81.30
40816;DHT22;26535;48.788;9.214;2024-03-29T12:41:09;19.20;80.10
40816;DHT22;26535;48.788;9.214;2024-03-29T12:43:35;19.60;79.30
40816;DHT22;26535;48.788;9.214;2024-03-29T12:46:01;20.10;76.90
40816;DHT22;26535;48.788;9.214;2024-03-29T12:48:27;20.40;77.50
40816;DHT22;26535;48.788;9.214;2024-03-29T12:50:52;20.60;78.30
40816;DHT22;26535;48.788;9.214;2024-03-29T12:53:19;21.00;78.20
40816;DHT22;26535;48.788;9.214;2024-03-29T12:55:46;22.20;74.90
40816;DHT22;26535;48.788;9.214;2024-03-29T12:58:16;23.20;72.60
40816;DHT22;26535;48.788;9.214;2024-03-29T13:00:43;23.40;70.90
40816;DHT22;26535;48.788;9.214;2024-03-29T13:34:19;28.70;58.30
40816;DHT22;26535;48.788;9.214;2024-03-29T13:36:44;29.60;58.10
40816;DHT22;26535;48.788;9.214;2024-03-29T13:39:14;29.30;57.40
40816;DHT22;26535;48.788;9.214;2024-03-29T13:41:40;29.30;57.10
40816;DHT22;26535;48.788;9.214;2024-03-29T13:44:06;29.40;57.40
40816;DHT22;26535;48.788;9.214;2024-03-29T13:46:36;29.60;57.40
40816;DHT22;26535;48.788;9.214;2024-03-29T13:49:02;29.10;57.80
40816;DHT22;26535;48.788;9.214;2024-03-29T13:51:31;29.50;57.80
40816;DHT22;26535;48.788;9.214;2024-03-29T13:53:57;30.00;57.60
40816;DHT22;26535;48.788;9.214;2024-03-29T13:56:24;30.30;56.30
40816;DHT22;26535;48.788;9.214;2024-03-29T13:58:49;30.50;55.90
40816;DHT22;26535;48.788;9.214;2024-03-29T14:01:15;30.80;54.30
40816;DHT22;26535;48.788;9.214;2024-03-29T14:03:42;31.40;54.20
40816;DHT22;26535;48.788;9.214;2024-03-29T14:06:08;31.40;53.50
40816;DHT22;26535;48.788;9.214;2024-03-29T14:08:35;31.80;53.10
40816;DHT22;26535;48.788;9.214;2024-03-29T14:11:01;32.00;53.00
40816;DHT22;26535;48.788;9.214;2024-03-29T14:13:27;31.70;52.70
40816;DHT22;26535;48.788;9.214;2024-03-29T14:15:53;31.20;53.50
40816;DHT22;26535;48.788;9.214;2024-03-29T14:18:19;30.50;53.90
40816;DHT22;26535;48.788;9.214;2024-03-29T14:20:45;30.30;54.10
40816;DHT22;26535;48.788;9.214;2024-03-29T14:23:11;30.40;54.20
40816;DHT22;26535;48.788;9.214;2024-03-29T14:25:40;30.30;54.10
40816;DHT22;26535;48.788;9.214;2024-03-29T14:28:06;30.70;54.20
40816;DHT22;26535;48.788;9.214;2024-03-29T14:30:32;31.50;53.80
40816;DHT22;26535;48.788;9.214;2024-03-29T14:32:58;31.60;53.40
40816;DHT22;26535;48.788;9.214;2024-03-29T14:35:28;31.90;53.80
40816;DHT22;26535;48.788;9.214;2024-03-29T14:46:02;32.50;52.00
40816;DHT22;26535;48.788;9.214;2024-03-29T14:48:31;32.00;52.50
40816;DHT22;26535;48.788;9.214;2024-03-29T14:51:06;32.40;52.20
40816;DHT22;26535;48.788;9.214;2024-03-29T14:57:57;34.30;49.30
40816;DHT22;26535;48.788;9.214;2024-03-29T15:00:49;33.10;50.40
40816;DHT22;26535;48.788;9.214;2024-03-29T15:07:08;32.10;49.80
40816;DHT22;26535;48.788;9.214;2024-03-29T15:36:00;26.90;56.80
40816;DHT22;26535;48.788;9.214;2024-03-29T15:38:58;27.30;55.90
40816;DHT22;26535;48.788;9.214;2024-03-29T15:42:19;26.70;56.10
40816;DHT22;26535;48.788;9.214;2024-03-29T15:44:46;26.30;57.00
40816;DHT22;26535;48.788;9.214;2024-03-29T15:47:18;26.10;58.10
40816;DHT22;26535;48.788;9.214;2024-03-29T15:49:49;26.20;59.10
40816;DHT22;26535;48.788;9.214;2024-03-29T15:59:30;25.20;59.90
40816;DHT22;26535;48.788;9.214;2024-03-29T16:05:31;24.90;60.30
40816;DHT22;26535;48.788;9.214;2024-03-29T16:08:12;24.40;60.30
40816;DHT22;26535;48.788;9.214;2024-03-29T16:13:23;23.60;62.30
40816;DHT22;26535;48.788;9.214;2024-03-29T16:15:54;23.40;61.70
40816;DHT22;26535;48.788;9.214;2024-03-29T16:18:20;23.40;62.00
40816;DHT22;26535;48.788;9.214;2024-03-29T16:21:01;23.20;62.60
40816;DHT22;26535;48.788;9.214;2024-03-29T16:23:29;22.70;63.70
40816;DHT22;26535;48.788;9.214;2024-03-29T16:26:03;22.20;64.70
40816;DHT22;26535;48.788;9.214;2024-03-29T16:32:01;21.40;66.90
40816;DHT22;26535;48.788;9.214;2024-03-29T16:34:44;20.90;68.30
40816;DHT22;26535;48.788;9.214;2024-03-29T16:37:36;20.50;70.40
40816;DHT22;26535;48.788;9.214;2024-03-29T16:40:04;20.20;72.20
40816;DHT22;26535;48.788;9.214;2024-03-29T16:42:57;19.90;73.50
40816;DHT22;26535;48.788;9.214;2024-03-29T16:45:49;19.60;75.10
40816;DHT22;26535;48.788;9.214;2024-03-29T16:48:27;19.30;76.00
40816;DHT22;26535;48.788;9.214;2024-03-29T16:50:53;19.00;77.60
40816;DHT22;26535;48.788;9.214;2024-03-29T16:53:34;18.80;77.80
40816;DHT22;26535;48.788;9.214;2024-03-29T16:56:51;18.60;78.80
40816;DHT22;26535;48.788;9.214;2024-03-29T17:02:51;18.00;81.10
40816;DHT22;26535;48.788;9.214;2024-03-29T17:05:27;17.90;81.80
40816;DHT22;26535;48.788;9.214;2024-03-29T17:08:05;17.70;82.70
40816;DHT22;26535;48.788;9.214;2024-03-29T17:11:19;17.70;83.50
40816;DHT22;26535;48.788;9.214;2024-03-29T17:13:51;17.70;82.70
40816;DHT22;26535;48.788;9.214;2024-03-29T17:16:17;17.60;83.40
40816;DHT22;26535;48.788;9.214;2024-03-29T17:25:39;17.30;84.60
40816;DHT22;26535;48.788;9.214;2024-03-29T17:28:06;17.10;85.30
40816;DHT22;26535;48.788;9.214;2024-03-29T17:30:32;17.00;85.70
40816;DHT22;26535;48.788;9.214;2024-03-29T17:32:59;16.90;86.00
40816;DHT22;26535;48.788;9.214;2024-03-29T17:42:30;16.40;87.70
40816;DHT22;26535;48.788;9.214;2024-03-29T17:45:22;16.30;87.90
40816;DHT22;26535;48.788;9.214;2024-03-29T17:48:13;16.10;88.30
40816;DHT22;26535;48.788;9.214;2024-03-29T17:50:50;15.90;88.90
40816;DHT22;26535;48.788;9.214;2024-03-29T17:56:42;15.70;90.00
40816;DHT22;26535;48.788;9.214;2024-03-29T17:59:17;15.60;90.30
40816;DHT22;26535;48.788;9.214;2024-03-29T18:16:21;15.20;91.30
40816;DHT22;26535;48.788;9.214;2024-03-29T18:26:08;15.00;91.70
40816;DHT22;26535;48.788;9.214;2024-03-29T18:42:01;14.50;92.60
40816;DHT22;26535;48.788;9.214;2024-03-29T18:44:37;14.40;92.70
40816;DHT22;26535;48.788;9.214;2024-03-29T18:47:04;14.40;92.90
40816;DHT22;26535;48.788;9.214;2024-03-29T19:04:19;14.10;93.50
40816;DHT22;26535;48.788;9.214;2024-03-29T19:07:06;14.10;93.60
40816;DHT22;26535;48.788;9.214;2024-03-29T19:09:32;14.10;93.40
40816;DHT22;26535;48.788;9.214;2024-03-29T19:11:57;14.00;93.60
40816;DHT22;26535;48.788;9.214;2024-03-29T19:14:23;14.00;93.80
40816;DHT22;26535;48.788;9.214;2024-03-29T19:16:50;13.90;93.90
40816;DHT22;26535;48.788;9.214;2024-03-29T19:19:19;13.90;93.90
40816;DHT22;26535;48.788;9.214;2024-03-29T19:21:58;13.90;94.00
40816;DHT22;26535;48.788;9.214;2024-03-29T19:24:29;13.80;94.30
40816;DHT22;26535;48.788;9.214;2024-03-29T19:27:01;13.80;94.60
40816;DHT22;26535;48.788;9.214;2024-03-29T19:30:36;13.70;94.70
40816;DHT22;26535;48.788;9.214;2024-03-29T19:37:28;13.60;94.90
40816;DHT22;26535;48.788;9.214;2024-03-29T19:41:00;13.50;95.20
40816;DHT22;26535;48.788;9.214;2024-03-29T19:44:07;13.40;95.70
40816;DHT22;26535;48.788;9.214;2024-03-29T20:21:31;12.80;97.80
40816;DHT22;26535;48.788;9.214;2024-03-29T20:23:59;12.80;97.80
40816;DHT22;26535;48.788;9.214;2024-03-29T20:38:04;12.60;98.30
40816;DHT22;26535;48.788;9.214;2024-03-29T20:41:19;12.60;98.50
40816;DHT22;26535;48.788;9.214;2024-03-29T20:44:41;12.50;98.70
40816;DHT22;26535;48.788;9.214;2024-03-29T20:47:35;12.40;99.00
40816;DHT22;26535;48.788;9.214;2024-03-29T21:02:02;12.10;99.90
40816;DHT22;26535;48.788;9.214;2024-03-29T21:05:21;12.00;99.90
40816;DHT22;26535;48.788;9.214;2024-03-29T21:08:30;11.90;99.90
40816;DHT22;26535;48.788;9.214;2024-03-29T21:13:56;11.80;99.90
40816;DHT22;26535;48.788;9.214;2024-03-29T21:16:22;11.80;99.90
40816;DHT22;26535;48.788;9.214;2024-03-29T21:18:47;11.80;99.90
40816;DHT22;26535;48.788;9.214;2024-03-29T21:21:31;11.80;99.90
40816;DHT22;26535;48.788;9.214;2024-03-29T21:23:57;11.90;99.90
40816;DHT22;26535;48.788;9.214;2024-03-29T21:26:23;11.80;99.90
40816;DHT22;26535;48.788;9.214;2024-03-29T21:28:57;11.70;99.90
40816;DHT22;26535;48.788;9.214;2024-03-29T21:31:29;11.70;99.90
40816;DHT22;26535;48.788;9.214;2024-03-29T21:33:58;11.70;99.90
40816;DHT22;26535;48.788;9.214;2024-03-29T21:36:45;11.60;99.90
40816;DHT22;26535;48.788;9.214;2024-03-29T21:39:14;11.50;99.90
40816;DHT22;26535;48.788;9.214;2024-03-29T21:41:58;11.50;99.90
40816;DHT22;26535;48.788;9.214;2024-03-29T21:48:14;11.30;99.90
40816;DHT22;26535;48.788;9.214;2024-03-29T21:50:58;11.30;99.90
40816;DHT22;26535;48.788;9.214;2024-03-29T21:53:30;11.20;99.90
40816;DHT22;26535;48.788;9.214;2024-03-29T21:55:56;11.20;99.90
40816;DHT22;26535;48.788;9.214;2024-03-29T21:58:21;11.20;99.90
40816;DHT22;26535;48.788;9.214;2024-03-29T22:00:47;11.10;99.90
40816;DHT22;26535;48.788;9.214;2024-03-29T22:03:13;11.10;99.90
40816;DHT22;26535;48.788;9.214;2024-03-29T22:05:54;11.00;99.90
40816;DHT22;26535;48.788;9.214;2024-03-29T22:08:20;11.00;99.90
40816;DHT22;26535;48.788;9.214;2024-03-29T22:10:45;10.90;99.90
40816;DHT22;26535;48.788;9.214;2024-03-29T22:13:14;10.90;99.90
40816;DHT22;26535;48.788;9.214;2024-03-29T22:15:40;10.90;99.90
40816;DHT22;26535;48.788;9.214;2024-03-29T22:18:07;10.80;99.90
40816;DHT22;26535;48.788;9.214;2024-03-29T22:20:35;10.80;99.90
40816;DHT22;26535;48.788;9.214;2024-03-29T22:23:03;10.80;99.90
40816;DHT22;26535;48.788;9.214;2024-03-29T22:25:37;10.80;99.90
40816;DHT22;26535;48.788;9.214;2024-03-29T22:28:23;10.80;99.90
40816;DHT22;26535;48.788;9.214;2024-03-29T22:30:55;10.80;99.90
40816;DHT22;26535;48.788;9.214;2024-03-29T22:33:46;10.80;99.90
40816;DHT22;26535;48.788;9.214;2024-03-29T22:36:38;10.80;99.90
40816;DHT22;26535;48.788;9.214;2024-03-29T22:39:10;10.80;99.90
40816;DHT22;26535;48.788;9.214;2024-03-29T22:41:38;10.80;99.90
40816;DHT22;26535;48.788;9.214;2024-03-29T22:44:04;10.80;99.90
40816;DHT22;26535;48.788;9.214;2024-03-29T22:46:30;10.80;99.90
40816;DHT22;26535;48.788;9.214;2024-03-29T22:48:55;10.80;99.90
40816;DHT22;26535;48.788;9.214;2024-03-29T22:51:24;10.80;99.90
40816;DHT22;26535;48.788;9.214;2024-03-29T22:53:50;10.80;99.90
40816;DHT22;26535;48.788;9.214;2024-03-29T22:56:25;10.80;99.90
40816;DHT22;26535;48.788;9.214;2024-03-29T22:58:56;10.80;99.90
40816;DHT22;26535;48.788;9.214;2024-03-29T23:01:23;10.80;99.90
40816;DHT22;26535;48.788;9.214;2024-03-29T23:03:49;10.70;99.90
40816;DHT22;26535;48.788;9.214;2024-03-29T23:06:15;10.70;99.90
40816;DHT22;26535;48.788;9.214;2024-03-29T23:08:41;10.60;99.90
40816;DHT22;26535;48.788;9.214;2024-03-29T23:11:08;10.50;99.90
40816;DHT22;26535;48.788;9.214;2024-03-29T23:13:39;10.50;99.90
40816;DHT22;26535;48.788;9.214;2024-03-29T23:16:05;10.40;99.90
40816;DHT22;26535;48.788;9.214;2024-03-29T23:18:34;10.40;99.90
40816;DHT22;26535;48.788;9.214;2024-03-29T23:20:59;10.30;99.90
40816;DHT22;26535;48.788;9.214;2024-03-29T23:23:25;10.20;99.90
40816;DHT22;26535;48.788;9.214;2024-03-29T23:25:51;10.20;99.90
40816;DHT22;26535;48.788;9.214;2024-03-29T23:28:16;10.10;99.90
40816;DHT22;26535;48.788;9.214;2024-03-29T23:34:26;10.00;99.90
40816;DHT22;26535;48.788;9.214;2024-03-29T23:36:55;10.00;99.90
40816;DHT22;26535;48.788;9.214;2024-03-29T23:39:22;10.00;99.90
40816;DHT22;26535;48.788;9.214;2024-03-29T23:41:48;10.10;99.90
40816;DHT22;26535;48.788;9.214;2024-03-29T23:44:14;10.00;99.90
40816;DHT22;26535;48.788;9.214;2024-03-29T23:46:40;10.00;99.90
40816;DHT22;26535;48.788;9.214;2024-03-29T23:49:07;10.00;99.90
40816;DHT22;26535;48.788;9.214;2024-03-29T23:51:41;10.00;99.90
